createdAt,value
2022-09-06T00:01:40.325Z,51.76
2022-09-06T00:04:26.353Z,51.90
2022-09-06T00:07:12.652Z,51.77
2022-09-06T00:09:58.709Z,52.03
2022-09-06T00:12:44.736Z,51.69
2022-09-06T00:15:31.004Z,51.87
2022-09-06T00:18:17.181Z,52.05
2022-09-06T00:21:04.511Z,52.14
2022-09-06T00:23:50.970Z,51.99
2022-09-06T00:26:36.840Z,52.25
2022-09-06T00:29:22.846Z,52.17
2022-09-06T00:32:09.152Z,52.03
2022-09-06T00:34:55.400Z,52.18
2022-09-06T00:37:41.321Z,52.17
2022-09-06T00:40:29.546Z,52.15
2022-09-06T00:43:15.718Z,52.33
2022-09-06T00:46:02.610Z,52.17
2022-09-06T00:48:50.595Z,52.31
2022-09-06T00:51:37.195Z,52.42
2022-09-06T00:54:23.605Z,52.42
2022-09-06T00:57:10.434Z,52.45
2022-09-06T00:59:56.778Z,52.59
2022-09-06T01:02:43.550Z,52.65
2022-09-06T01:05:39.441Z,52.63
2022-09-06T01:08:51.373Z,52.57
2022-09-06T01:11:55.952Z,52.54
2022-09-06T01:15:09.761Z,52.87
2022-09-06T01:18:01.937Z,52.82
2022-09-06T01:21:06.272Z,52.93
2022-09-06T01:23:59.471Z,52.84
2022-09-06T01:27:03.899Z,52.66
2022-09-06T01:30:02.310Z,53.01
2022-09-06T01:33:07.281Z,53.07
2022-09-06T01:36:01.195Z,53.11
2022-09-06T01:38:47.096Z,52.79
2022-09-06T01:41:33.194Z,52.90
2022-09-06T01:44:20.206Z,52.92
2022-09-06T01:47:31.015Z,53.17
2022-09-06T01:50:35.528Z,53.36
2022-09-06T01:53:46.696Z,53.25
2022-09-06T01:57:07.974Z,53.20
2022-09-06T01:59:53.932Z,53.22
2022-09-06T02:03:10.808Z,53.47
2022-09-06T02:06:15.312Z,53.65
2022-09-06T02:09:06.856Z,53.63
2022-09-06T02:12:01.113Z,53.60
2022-09-06T02:14:54.660Z,53.39
2022-09-06T02:17:45.607Z,53.70
2022-09-06T02:20:34.220Z,53.67
2022-09-06T02:23:24.552Z,53.96
2022-09-06T02:26:20.900Z,53.83
2022-09-06T02:29:07.066Z,53.81
2022-09-06T02:31:59.689Z,53.90
2022-09-06T02:34:46.325Z,53.81
2022-09-06T02:37:32.791Z,54.06
2022-09-06T02:40:18.917Z,53.80
2022-09-06T02:43:04.956Z,53.78
2022-09-06T02:45:50.989Z,53.79
2022-09-06T02:48:37.352Z,53.94
2022-09-06T02:51:23.757Z,54.10
2022-09-06T02:54:09.857Z,53.87
2022-09-06T02:56:55.862Z,53.96
2022-09-06T02:59:41.967Z,54.13
2022-09-06T03:02:27.836Z,54.23
2022-09-06T03:05:13.710Z,54.03
2022-09-06T03:07:59.836Z,54.10
2022-09-06T03:10:52.960Z,54.30
2022-09-06T03:13:39.087Z,54.23
2022-09-06T03:16:25.126Z,54.39
2022-09-06T03:19:11.472Z,54.27
2022-09-06T03:21:57.487Z,54.26
2022-09-06T03:24:43.889Z,54.31
2022-09-06T03:27:29.820Z,54.39
2022-09-06T03:30:16.073Z,54.66
2022-09-06T03:33:03.058Z,54.42
2022-09-06T03:35:53.875Z,54.48
2022-09-06T03:38:40.191Z,54.41
2022-09-06T03:41:26.316Z,54.64
2022-09-06T03:44:12.392Z,54.77
2022-09-06T03:46:58.805Z,54.53
2022-09-06T03:49:45.408Z,54.61
2022-09-06T03:52:31.723Z,54.78
2022-09-06T03:55:17.915Z,54.67
2022-09-06T03:58:04.221Z,54.70
2022-09-06T04:00:54.198Z,54.79
2022-09-06T04:03:40.352Z,54.76
2022-09-06T04:06:26.472Z,54.57
2022-09-06T04:09:12.451Z,54.68
2022-09-06T04:11:58.597Z,54.46
2022-09-06T04:14:44.622Z,54.97
2022-09-06T04:17:30.521Z,54.75
2022-09-06T04:20:17.462Z,54.93
2022-09-06T04:23:04.119Z,54.93
2022-09-06T04:25:52.463Z,54.85
2022-09-06T04:28:38.523Z,55.11
2022-09-06T04:31:24.617Z,55.18
2022-09-06T04:34:10.509Z,55.05
2022-09-06T04:36:56.647Z,55.07
2022-09-06T04:39:43.008Z,55.25
2022-09-06T04:42:29.312Z,55.16
2022-09-06T04:45:15.460Z,55.41
2022-09-06T04:48:02.105Z,55.13
2022-09-06T04:50:48.303Z,55.19
2022-09-06T04:53:34.215Z,55.18
2022-09-06T04:56:22.449Z,55.00
2022-09-06T04:59:08.564Z,55.25
2022-09-06T05:01:55.287Z,55.30
2022-09-06T05:04:41.180Z,55.22
2022-09-06T05:07:27.033Z,55.29
2022-09-06T05:10:12.917Z,55.30
2022-09-06T05:12:58.677Z,55.62
2022-09-06T05:15:44.835Z,55.65
2022-09-06T05:18:31.334Z,55.70
2022-09-06T05:21:17.359Z,55.50
2022-09-06T05:24:03.541Z,55.72
2022-09-06T05:26:49.534Z,56.02
2022-09-06T05:29:35.338Z,55.94
2022-09-06T05:32:21.157Z,55.98
2022-09-06T05:35:07.357Z,56.04
2022-09-06T05:37:53.403Z,56.07
2022-09-06T05:40:39.430Z,56.22
2022-09-06T05:43:25.277Z,56.26
2022-09-06T05:46:11.664Z,56.32
2022-09-06T05:49:04.819Z,56.52
2022-09-06T05:51:52.213Z,56.05
2022-09-06T05:54:38.773Z,55.94
2022-09-06T06:07:35.726Z,58.25
2022-09-06T06:10:21.981Z,58.33
2022-09-06T06:13:07.949Z,58.15
2022-09-06T06:15:53.868Z,58.03
2022-09-06T06:18:40.041Z,57.59
2022-09-06T06:21:28.839Z,57.04
2022-09-06T06:24:14.875Z,57.32
2022-09-06T06:27:00.803Z,56.95
2022-09-06T06:29:46.752Z,56.90
2022-09-06T06:32:32.594Z,56.94
2022-09-06T06:35:18.402Z,56.83
2022-09-06T06:38:04.325Z,57.38
2022-09-06T06:40:50.127Z,56.88
2022-09-06T06:43:37.774Z,56.79
2022-09-06T06:46:26.588Z,56.95
2022-09-06T06:49:12.581Z,57.15
2022-09-06T06:51:58.326Z,56.70
2022-09-06T06:54:44.315Z,56.38
2022-09-06T06:57:30.152Z,56.46
2022-09-06T07:00:16.307Z,56.40
2022-09-06T07:03:02.509Z,56.30
2022-09-06T07:08:57.082Z,56.28
2022-09-06T07:11:43.417Z,56.63
2022-09-06T07:14:29.641Z,56.42
2022-09-06T07:17:15.469Z,56.23
2022-09-06T07:20:17.136Z,56.27
2022-09-06T07:26:16.288Z,56.23
2022-09-06T07:29:04.531Z,55.95
2022-09-06T07:34:57.277Z,55.88
2022-09-06T07:37:43.495Z,55.98
2022-09-06T07:40:30.848Z,55.91
2022-09-06T07:43:16.986Z,55.98
2022-09-06T07:46:06.131Z,55.67
2022-09-06T07:48:52.473Z,55.76
2022-09-06T07:51:38.619Z,55.80
2022-09-06T07:54:31.866Z,55.68
2022-09-06T07:57:18.109Z,55.75
2022-09-06T08:00:05.149Z,55.66
2022-09-06T08:02:57.723Z,55.53
2022-09-06T08:08:58.195Z,55.50
2022-09-06T08:11:44.589Z,55.27
2022-09-06T08:14:30.510Z,55.46
2022-09-06T08:17:16.589Z,55.25
2022-09-06T08:20:04.109Z,55.11
2022-09-06T08:22:50.412Z,55.29
2022-09-06T08:25:36.380Z,55.23
2022-09-06T08:28:25.605Z,55.08
2022-09-06T08:31:16.066Z,55.22
2022-09-06T08:34:03.872Z,55.19
2022-09-06T08:36:49.857Z,54.88
2022-09-06T08:39:35.746Z,54.96
2022-09-06T08:42:21.622Z,54.85
2022-09-06T08:45:16.724Z,54.58
2022-09-06T08:48:03.321Z,54.74
2022-09-06T08:50:59.910Z,54.58
2022-09-06T08:53:52.990Z,54.46
2022-09-06T08:57:11.269Z,54.04
2022-09-06T09:00:01.489Z,53.90
2022-09-06T09:02:51.819Z,53.92
2022-09-06T09:05:40.061Z,53.78
2022-09-06T09:08:29.324Z,53.49
2022-09-06T09:11:18.758Z,52.95
2022-09-06T09:14:19.222Z,53.39
2022-09-06T09:17:15.734Z,52.94
2022-09-06T09:20:02.216Z,52.82
2022-09-06T09:22:48.938Z,52.92
2022-09-06T09:25:36.378Z,52.64
2022-09-06T09:28:25.943Z,52.25
2022-09-06T09:31:14.362Z,52.33
2022-09-06T09:34:04.721Z,52.13
2022-09-06T09:40:57.135Z,51.79
2022-09-06T09:43:57.768Z,51.81
2022-09-06T09:46:45.769Z,48.95
2022-09-06T09:49:32.616Z,51.96
2022-09-06T09:52:27.646Z,47.62
2022-09-06T09:55:13.637Z,51.43
2022-09-06T09:57:59.593Z,51.58
2022-09-06T10:00:45.597Z,51.29
2022-09-06T10:03:31.393Z,50.74
2022-09-06T10:09:35.978Z,50.34
2022-09-06T10:12:34.286Z,50.47
2022-09-06T10:15:53.718Z,47.14
2022-09-06T10:18:44.009Z,50.24
2022-09-06T10:21:30.285Z,50.32
2022-09-06T10:24:31.987Z,49.76
2022-09-06T10:27:26.267Z,46.37
2022-09-06T10:30:14.555Z,49.65
2022-09-06T10:33:23.792Z,48.87
2022-09-06T10:36:10.126Z,49.50
2022-09-06T10:39:04.257Z,48.87
2022-09-06T10:41:50.358Z,49.03
2022-09-06T10:44:45.727Z,48.85
2022-09-06T10:47:38.058Z,48.66
2022-09-06T10:50:54.747Z,47.90
2022-09-06T10:53:54.898Z,45.34
2022-09-06T10:57:09.336Z,48.63
2022-09-06T11:00:15.603Z,48.50
2022-09-06T11:06:13.907Z,47.94
2022-09-06T11:09:12.037Z,44.95
2022-09-06T11:12:09.668Z,47.51
2022-09-06T11:14:55.837Z,47.44
2022-09-06T11:18:06.609Z,44.86
2022-09-06T11:21:25.377Z,47.22
2022-09-06T11:24:16.026Z,46.74
2022-09-06T11:27:06.553Z,46.72
2022-09-06T11:29:56.605Z,46.52
2022-09-06T11:32:48.593Z,46.40
2022-09-06T11:35:35.054Z,46.41
2022-09-06T11:38:25.155Z,45.35
2022-09-06T11:41:16.265Z,44.09
2022-09-06T11:44:03.006Z,42.57
2022-09-06T11:46:49.120Z,44.92
2022-09-06T11:49:37.349Z,45.04
2022-09-06T11:52:49.254Z,45.29
2022-09-06T11:55:45.668Z,45.10
2022-09-06T11:58:51.019Z,45.08
2022-09-06T12:01:37.891Z,45.21
2022-09-06T12:04:23.881Z,45.09
2022-09-06T12:07:11.996Z,44.97
2022-09-06T12:10:01.733Z,44.81
2022-09-06T12:12:52.617Z,44.49
2022-09-06T12:15:46.405Z,39.09
2022-09-06T12:18:47.896Z,44.25
2022-09-06T12:21:38.274Z,44.13
2022-09-06T12:24:36.542Z,43.80
2022-09-06T12:27:24.063Z,43.82
2022-09-06T12:30:12.476Z,43.97
2022-09-06T12:32:58.756Z,43.80
2022-09-06T12:38:39.645Z,43.52
2022-09-06T12:41:28.553Z,43.24
2022-09-06T12:44:15.788Z,43.58
2022-09-06T12:47:10.878Z,43.19
2022-09-06T12:50:21.336Z,43.27
2022-09-06T12:53:24.642Z,43.50
2022-09-06T12:56:14.369Z,43.44
2022-09-06T12:59:17.730Z,43.57
2022-09-06T13:02:08.944Z,42.93
2022-09-06T13:05:06.856Z,43.26
2022-09-06T13:07:59.597Z,43.49
2022-09-06T13:10:47.542Z,43.67
2022-09-06T13:13:33.773Z,43.68
2022-09-06T13:16:21.171Z,42.95
2022-09-06T13:19:15.772Z,42.60
2022-09-06T13:22:03.998Z,42.43
2022-09-06T13:24:56.105Z,42.23
2022-09-06T13:27:46.165Z,42.12
2022-09-06T13:30:49.041Z,41.48
2022-09-06T13:33:37.710Z,41.88
2022-09-06T13:36:33.921Z,41.44
2022-09-06T13:39:49.271Z,40.75
2022-09-06T13:42:36.731Z,41.28
2022-09-06T13:45:29.943Z,41.03
2022-09-06T13:48:28.685Z,41.01
2022-09-06T13:51:15.555Z,40.74
2022-09-06T13:54:08.792Z,40.30
2022-09-06T13:56:55.457Z,40.38
2022-09-06T13:59:42.842Z,40.57
2022-09-06T14:02:29.046Z,39.65
2022-09-06T14:05:14.992Z,39.60
2022-09-06T14:08:01.231Z,39.70
2022-09-06T14:10:48.350Z,39.13
2022-09-06T14:13:34.404Z,38.99
2022-09-06T14:16:20.772Z,38.94
2022-09-06T14:19:06.884Z,39.07
2022-09-06T14:21:52.938Z,38.93
2022-09-06T14:24:39.342Z,38.77
2022-09-06T14:27:25.417Z,38.56
2022-09-06T14:30:11.990Z,38.63
2022-09-06T14:32:58.009Z,38.77
2022-09-06T14:35:43.818Z,38.67
2022-09-06T14:38:29.820Z,39.04
2022-09-06T14:41:17.759Z,38.42
2022-09-06T14:44:04.242Z,38.40
2022-09-06T14:46:53.463Z,38.74
2022-09-06T14:49:39.657Z,38.29
2022-09-06T14:52:25.570Z,38.26
2022-09-06T14:55:12.540Z,38.21
2022-09-06T14:57:59.413Z,37.86
2022-09-06T15:00:46.709Z,37.88
2022-09-06T15:03:34.597Z,37.29
2022-09-06T15:06:22.150Z,37.21
2022-09-06T15:09:08.248Z,37.11
2022-09-06T15:11:54.641Z,36.66
2022-09-06T15:14:41.296Z,36.09
2022-09-06T15:17:27.232Z,36.20
2022-09-06T15:20:13.305Z,35.92
2022-09-06T15:23:15.135Z,35.71
2022-09-06T15:26:08.316Z,35.27
2022-09-06T15:28:54.606Z,35.34
2022-09-06T15:31:41.961Z,35.31
2022-09-06T15:34:28.142Z,35.20
2022-09-06T15:37:13.959Z,35.30
2022-09-06T15:40:00.128Z,34.80
2022-09-06T15:42:46.428Z,34.53
2022-09-06T15:45:46.819Z,34.55
2022-09-06T15:48:43.594Z,34.53
2022-09-06T15:51:29.588Z,34.16
2022-09-06T15:54:18.173Z,34.03
2022-09-06T15:57:05.133Z,34.31
2022-09-06T15:59:51.150Z,33.99
2022-09-06T16:02:37.237Z,33.84
2022-09-06T16:08:29.770Z,33.58
2022-09-06T16:11:17.029Z,33.11
2022-09-06T16:14:05.400Z,32.87
2022-09-06T16:16:54.530Z,33.10
2022-09-06T16:19:40.862Z,33.40
2022-09-06T16:22:26.752Z,33.51
2022-09-06T16:25:12.662Z,33.56
2022-09-06T16:27:58.724Z,33.18
2022-09-06T16:30:45.034Z,33.67
2022-09-06T16:33:32.529Z,33.40
2022-09-06T16:36:19.304Z,33.83
2022-09-06T16:39:06.231Z,33.70
2022-09-06T16:41:52.607Z,33.93
2022-09-06T16:44:38.760Z,33.96
2022-09-06T16:47:25.227Z,33.82
2022-09-06T16:50:11.761Z,33.98
2022-09-06T16:52:58.453Z,34.12
2022-09-06T16:55:44.623Z,34.58
2022-09-06T16:58:31.297Z,34.76
2022-09-06T17:01:17.982Z,34.53
2022-09-06T17:04:05.839Z,34.96
2022-09-06T17:06:51.888Z,34.96
2022-09-06T17:09:37.977Z,34.99
2022-09-06T17:12:24.420Z,35.30
2022-09-06T17:15:10.896Z,35.62
2022-09-06T17:17:57.070Z,35.32
2022-09-06T17:20:54.837Z,35.44
2022-09-06T17:23:41.044Z,35.73
2022-09-06T17:26:27.370Z,35.81
2022-09-06T17:29:13.399Z,35.93
2022-09-06T17:32:00.383Z,35.97
2022-09-06T17:34:46.641Z,36.53
2022-09-06T17:37:33.563Z,36.34
2022-09-06T17:40:20.182Z,36.46
2022-09-06T17:43:06.917Z,36.62
2022-09-06T17:45:53.038Z,36.66
2022-09-06T17:48:39.375Z,36.68
2022-09-06T17:51:26.191Z,36.88
2022-09-06T17:54:13.317Z,37.04
2022-09-06T17:56:59.236Z,37.11
2022-09-06T17:59:45.493Z,37.33
2022-09-06T18:02:31.416Z,37.45
2022-09-06T18:05:18.110Z,37.46
2022-09-06T18:08:04.122Z,37.59
2022-09-06T18:10:50.610Z,37.52
2022-09-06T18:13:36.817Z,37.71
2022-09-06T18:16:23.089Z,37.90
2022-09-06T18:19:09.353Z,37.68
2022-09-06T18:21:57.322Z,38.15
2022-09-06T18:24:44.159Z,38.16
2022-09-06T18:27:30.190Z,38.29
2022-09-06T18:30:16.411Z,38.31
2022-09-06T18:33:02.741Z,38.56
2022-09-06T18:35:50.515Z,38.62
2022-09-06T18:38:38.620Z,38.79
2022-09-06T18:41:42.982Z,39.10
2022-09-06T18:44:33.134Z,39.26
2022-09-06T18:47:19.623Z,39.08
2022-09-06T18:50:08.258Z,39.05
2022-09-06T18:52:55.291Z,39.47
2022-09-06T18:55:43.309Z,39.55
2022-09-06T18:58:29.527Z,39.34
2022-09-06T19:01:17.996Z,39.53
2022-09-06T19:04:05.657Z,39.87
2022-09-06T19:06:52.230Z,40.04
2022-09-06T19:09:38.724Z,40.01
2022-09-06T19:12:25.067Z,39.89
2022-09-06T19:15:13.835Z,39.98
2022-09-06T19:18:00.411Z,40.21
2022-09-06T19:20:57.232Z,40.54
2022-09-06T19:23:45.362Z,40.38
2022-09-06T19:26:34.419Z,40.61
2022-09-06T19:29:21.018Z,40.67
2022-09-06T19:32:07.635Z,40.77
2022-09-06T19:34:53.923Z,40.80
2022-09-06T19:37:40.247Z,41.03
2022-09-06T19:40:26.357Z,41.06
2022-09-06T19:43:12.460Z,41.34
2022-09-06T19:46:05.649Z,41.32
2022-09-06T19:48:52.600Z,41.52
2022-09-06T19:51:39.665Z,41.35
2022-09-06T19:54:25.761Z,41.68
2022-09-06T19:57:12.057Z,41.68
2022-09-06T19:59:57.972Z,41.69
2022-09-06T20:02:44.208Z,41.90
2022-09-06T20:05:29.998Z,41.82
2022-09-06T20:08:16.062Z,42.08
2022-09-06T20:11:03.403Z,42.25
2022-09-06T20:13:49.523Z,42.18
2022-09-06T20:16:40.681Z,42.21
2022-09-06T20:19:27.765Z,42.61
2022-09-06T20:22:13.832Z,42.39
2022-09-06T20:24:59.855Z,42.51
2022-09-06T20:27:46.143Z,42.47
2022-09-06T20:30:32.076Z,42.44
2022-09-06T20:33:18.323Z,42.86
2022-09-06T20:36:06.249Z,42.88
2022-09-06T20:38:52.341Z,43.16
2022-09-06T20:41:38.602Z,43.21
2022-09-06T20:44:24.535Z,43.27
2022-09-06T20:47:10.375Z,43.42
2022-09-06T20:49:56.150Z,43.65
2022-09-06T20:52:42.305Z,43.52
2022-09-06T20:55:28.419Z,43.50
2022-09-06T20:58:14.323Z,43.76
2022-09-06T21:01:00.346Z,43.71
2022-09-06T21:03:46.498Z,43.91
2022-09-06T21:06:36.659Z,44.01
2022-09-06T21:09:22.937Z,43.93
2022-09-06T21:12:08.912Z,44.06
2022-09-06T21:14:55.159Z,44.24
2022-09-06T21:17:41.130Z,44.35
2022-09-06T21:20:26.874Z,44.55
2022-09-06T21:23:12.810Z,44.42
2022-09-06T21:26:10.270Z,44.73
2022-09-06T21:28:56.238Z,44.78
2022-09-06T21:31:42.507Z,44.78
2022-09-06T21:34:28.874Z,44.81
2022-09-06T21:37:14.871Z,45.01
2022-09-06T21:40:00.733Z,45.12
2022-09-06T21:42:47.237Z,45.26
2022-09-06T21:45:38.180Z,45.10
2022-09-06T21:48:24.534Z,45.33
2022-09-06T21:51:15.606Z,45.40
2022-09-06T21:54:05.096Z,45.43
2022-09-06T21:56:51.344Z,45.29
2022-09-06T21:59:37.315Z,45.33
2022-09-06T22:02:23.668Z,45.61
2022-09-06T22:05:10.042Z,45.63
2022-09-06T22:07:56.094Z,46.54
2022-09-06T22:10:42.164Z,46.21
2022-09-06T22:13:28.315Z,46.08
2022-09-06T22:16:15.732Z,46.24
2022-09-06T22:19:02.197Z,46.25
2022-09-06T22:21:48.591Z,46.27
2022-09-06T22:24:34.883Z,46.36
2022-09-06T22:27:20.823Z,46.17
2022-09-06T22:30:07.254Z,46.46
2022-09-06T22:32:53.777Z,46.82
2022-09-06T22:35:40.149Z,46.75
2022-09-06T22:38:27.345Z,46.71
2022-09-06T22:41:13.521Z,46.77
2022-09-06T22:44:03.736Z,46.68
2022-09-06T22:46:50.012Z,46.81
2022-09-06T22:49:36.122Z,46.75
2022-09-06T22:52:21.960Z,46.82
2022-09-06T22:55:08.341Z,46.77
2022-09-06T22:57:54.498Z,46.88
2022-09-06T23:00:40.473Z,47.06
2022-09-06T23:03:26.356Z,46.94
2022-09-06T23:06:12.676Z,46.98
2022-09-06T23:08:58.805Z,47.14
2022-09-06T23:11:45.377Z,47.35
2022-09-06T23:14:31.428Z,47.41
2022-09-06T23:17:17.451Z,47.37
2022-09-06T23:20:04.027Z,47.49
2022-09-06T23:22:50.119Z,47.60
2022-09-06T23:25:39.370Z,47.63
2022-09-06T23:28:25.463Z,47.25
2022-09-06T23:31:14.681Z,47.70
2022-09-06T23:34:01.568Z,47.66
2022-09-06T23:36:48.106Z,47.76
2022-09-06T23:39:34.210Z,47.76
2022-09-06T23:42:21.115Z,47.69
2022-09-06T23:45:07.362Z,47.86
2022-09-06T23:47:53.306Z,47.87
2022-09-06T23:50:39.449Z,47.66
2022-09-06T23:53:25.841Z,48.02
2022-09-06T23:56:12.352Z,48.08
2022-09-06T23:58:58.498Z,48.06
